Wind EuroAirport

Messzeit Windrichtung Windgeschwindigkeit [Knoten] Rückenwind Nordpiste [Knoten] METAR
2017-04-27 22:00 NW 330° 5 5 LFSB 272000Z 33005KT 4000 -RA FEW009 BKN020 05/04 Q1014 TEMPO BKN012
2017-04-27 21:30 NW 330°
(300°–360°)
6 5–6 LFSB 271930Z 33006KT 300V360 4000 -RA FEW009 BKN020 05/04 Q1014 TEMPO BKN012
2017-04-27 21:00 NW 330° 5 5 LFSB 271900Z 33005KT 4000 -RA FEW008 BKN015 05/04 Q1014 TEMPO BKN012
2017-04-27 20:30 - 2 - LFSB 271830Z VRB02KT 6000 -RA FEW008 SCT022 BKN040 05/04 Q1014 TEMPO 4000 BR
2017-04-27 20:00 S 180° 4 - LFSB 271800Z 18004KT 6000 -RA FEW015 SCT022 BKN040 05/04 Q1014 TEMPO 4000 BR
2017-04-27 19:30 SO 120°
(80°–150°)
3 - LFSB 271730Z 12003KT 080V150 8000 3000S -RA SCT015 BKN022 BKN030 05/04 Q1014 TEMPO 4000 BR
2017-04-27 19:00 SO 130°
(100°–160°)
4 - LFSB 271700Z 13004KT 100V160 8000 -RA SCT015 BKN022 BKN030 06/04 Q1014 TEMPO 4000 BR
2017-04-27 18:30 SO 130°
(100°–160°)
5 - LFSB 271630Z 13005KT 100V160 8000 -RA SCT015 BKN022 BKN030 06/04 Q1014 TEMPO 4000 BR
2017-04-27 18:00 N 10°
(300°–60°)
3 1–3 LFSB 271600Z 01003KT 300V060 9999 SCT017 BKN026 BKN036 07/03 Q1014 NOSIG
2017-04-27 17:30 N 340°
(310°–70°)
4 0–4 LFSB 271530Z 34004KT 310V070 9999 -RA SCT016 BKN026 BKN033 07/04 Q1014 NOSIG
2017-04-27 17:00 NW 310°
(280°–360°)
5 3–5 LFSB 271500Z 31005KT 280V360 9999 SCT016 BKN026 07/04 Q1014 NOSIG
2017-04-27 16:30 N 340°
(300°–20°)
4 3–4 LFSB 271430Z 34004KT 300V020 9999 SCT016 BKN026 06/04 Q1014 NOSIG
2017-04-27 16:00 NW 320°
(280°–360°)
4 2–4 LFSB 271400Z 32004KT 280V360 9999 FEW015 BKN025 06/03 Q1015 NOSIG
2017-04-27 15:30 NW 320°
(280°–10°)
5 3–5 LFSB 271330Z 32005KT 280V010 9999 SCT013 BKN022 06/03 Q1015 NOSIG
2017-04-27 15:00 NW 330°
(290°–10°)
6 4–6 LFSB 271300Z 33006KT 290V010 9999 SCT013 BKN020 06/04 Q1015 NOSIG
2017-04-27 14:30 N 340°
(310°–10°)
6 5–6 LFSB 271230Z 34006KT 310V010 9999 -RA BKN013 BKN020 06/04 Q1015 BECMG BKN020
2017-04-27 14:00 N 340°
(310°–20°)
5 4–5 LFSB 271200Z 34005KT 310V020 9999 -RA BKN010 BKN015 05/04 Q1015 BECMG BKN020
2017-04-27 13:30 N 340° 6 6 LFSB 271130Z 34006KT 9999 -RA BKN010 BKN016 05/03 Q1015 BECMG BKN020
2017-04-27 13:00 NW 320° 7 7 LFSB 271100Z 32007KT 9999 -RA BKN010 BKN014 05/03 Q1015 NOSIG
2017-04-27 12:30 NW 320° 8 8 LFSB 271030Z 32008KT 9999 -RA BKN009 BKN013 05/03 Q1015 NOSIG
2017-04-27 12:00 NW 320° 5 5 LFSB 271000Z 32005KT 9999 -RA OVC011 04/03 Q1015 NOSIG
2017-04-27 11:30 NW 320° 6 6 LFSB 270930Z 32006KT 9999 -RA BKN010 BKN015 04/03 Q1016 NOSIG
2017-04-27 11:00 NW 320°
(290°–350°)
8 5–8 LFSB 270900Z 32008KT 290V350 9999 -RA BKN008 BKN013 04/03 Q1015 NOSIG
2017-04-27 10:30 NW 320° 7 7 LFSB 270830Z 32007KT 9999 -RA BKN008 BKN013 04/02 Q1015 NOSIG
2017-04-27 10:00 NW 300°
(270°–340°)
6 2–6 LFSB 270800Z 30006KT 270V340 9999 -RA SCT008 BKN013 04/02 Q1015 BECMG FEW010 BKN020
2017-04-27 09:30 NW 300° 5 4 LFSB 270730Z 30005KT 9000 -RA SCT007 BKN015 OVC024 03/02 Q1015 BECMG FEW010 BKN025
2017-04-27 09:00 W 290° 4 3 LFSB 270700Z 29004KT 9000 SCT007 BKN011 OVC020 03/02 Q1015 BECMG FEW010 BKN025
2017-04-27 08:30 - 3 - LFSB 270630Z VRB03KT 9000 FEW007 BKN012 OVC024 03/02 Q1015 BECMG FEW010 BKN025
2017-04-27 08:00 - 2 - LFSB 270600Z VRB02KT 8000 FEW006 OVC012 02/02 Q1015 NOSIG
2017-04-27 07:30 NW 320°
(300°–360°)
4 3–4 LFSB 270530Z 32004KT 300V360 8000 -RA FEW007 OVC014 02/02 Q1015 NOSIG
2017-04-27 07:00 NW 300°
(280°–340°)
4 2–4 LFSB 270500Z 30004KT 280V340 8000 -RA BKN011 OVC019 02/01 Q1015 NOSIG
2017-04-27 06:30 NW 300° 4 3 LFSB 270430Z 30004KT 7000 -RA BKN010 OVC020 02/01 Q1014 NOSIG
2017-04-27 06:00 W 290° 4 3 LFSB 270400Z 29004KT 7000 -RA BKN008 OVC014 02/01 Q1014 NOSIG
2017-04-27 05:30 W 280° 4 2 LFSB 270330Z 28004KT 7000 -RA BKN008 OVC014 02/01 Q1014 NOSIG
2017-04-27 05:00 W 270° 5 2 LFSB 270300Z 27005KT 7000 -RA BKN008 02/01 Q1014 RERA NOSIG
2017-04-27 04:30 NW 330°
(300°–360°)
7 5–7 LFSB 270230Z 33007KT 300V360 7000 RA BKN008 03/02 Q1014 NOSIG
2017-04-27 04:00 NW 310°
(280°–340°)
6 3–6 LFSB 270200Z AUTO 31006KT 280V340 9000 -RA BKN008 OVC014 03/02 Q1014 TEMPO 4500 -RA
2017-04-27 03:30 NW 320°
(290°–360°)
6 4–6 LFSB 270130Z AUTO 32006KT 290V360 9000 RA BKN008 OVC013 04/03 Q1014 TEMPO 4500 -RA
2017-04-27 03:00 NW 320° 8 8 LFSB 270100Z AUTO 32008KT 8000 -RA BKN010 OVC014 04/03 Q1013 TEMPO 4500 -RA
2017-04-27 02:30 NW 330° 9 9 LFSB 270030Z AUTO 33009KT 8000 -RA BKN008 OVC013 04/03 Q1013 TEMPO 4500 -RA
2017-04-27 02:00 NW 320° 10 9 LFSB 270000Z AUTO 32010KT 6000 -RA BKN007 OVC013 04/03 Q1013 TEMPO 4500 -RA
2017-04-27 01:30 NW 310° 8 7 LFSB 262330Z AUTO 31008KT 6000 -RA FEW007 BKN013 OVC018 04/04 Q1013 TEMPO 4500 -RA BKN008
2017-04-27 01:00 NW 330° 8 8 LFSB 262300Z AUTO 33008KT 5000 -RA BR OVC005 04/04 Q1013 TEMPO BKN010
2017-04-27 00:30 NW 330° 7 7 LFSB 262230Z AUTO 33007KT 5000 -RA BR OVC005 04/04 Q1013 TEMPO BKN010
2017-04-27 00:00 N 340° 9 9 LFSB 262200Z 34009KT 5000 -RA BKN005 BKN013 04/04 Q1013 NOSIG
2017-04-26 23:30 N 340° 8 8 LFSB 262130Z 34008KT 5000 -RA SCT005 BKN013 BKN021 04/04 Q1012 NOSIG
2017-04-26 23:00 N 350°
(320°–20°)
7 5–7 LFSB 262100Z 35007KT 320V020 5000 -RA SCT005 BKN013 BKN018 05/04 Q1012 NOSIG